sensor_id;sensor_type;location;lat;lon;timestamp;P1;durP1;ratioP1;P2;durP2;ratioP2
12165;SDS011;6146;48.128;11.476;2023-07-30T00:01:13;1.77;;;1.57;;
12165;SDS011;6146;48.128;11.476;2023-07-30T00:03:39;2.40;;;1.67;;
12165;SDS011;6146;48.128;11.476;2023-07-30T00:06:04;1.80;;;1.70;;
12165;SDS011;6146;48.128;11.476;2023-07-30T00:08:30;2.70;;;1.57;;
12165;SDS011;6146;48.128;11.476;2023-07-30T00:10:58;2.13;;;1.50;;
12165;SDS011;6146;48.128;11.476;2023-07-30T00:13:24;1.43;;;1.33;;
12165;SDS011;6146;48.128;11.476;2023-07-30T00:15:50;1.70;;;1.50;;
12165;SDS011;6146;48.128;11.476;2023-07-30T00:18:16;2.60;;;1.80;;
12165;SDS011;6146;48.128;11.476;2023-07-30T00:20:42;2.00;;;1.60;;
12165;SDS011;6146;48.128;11.476;2023-07-30T00:23:08;2.03;;;1.60;;
12165;SDS011;6146;48.128;11.476;2023-07-30T00:25:33;2.07;;;1.70;;
12165;SDS011;6146;48.128;11.476;2023-07-30T00:27:59;1.87;;;1.70;;
12165;SDS011;6146;48.128;11.476;2023-07-30T00:30:25;1.63;;;1.40;;
12165;SDS011;6146;48.128;11.476;2023-07-30T00:32:50;1.57;;;1.40;;
12165;SDS011;6146;48.128;11.476;2023-07-30T00:35:16;1.70;;;1.60;;
12165;SDS011;6146;48.128;11.476;2023-07-30T00:37:41;2.07;;;1.90;;
12165;SDS011;6146;48.128;11.476;2023-07-30T00:40:07;1.70;;;1.57;;
12165;SDS011;6146;48.128;11.476;2023-07-30T00:42:33;7.53;;;1.90;;
12165;SDS011;6146;48.128;11.476;2023-07-30T00:44:58;1.80;;;1.70;;
12165;SDS011;6146;48.128;11.476;2023-07-30T00:47:24;2.07;;;1.80;;
12165;SDS011;6146;48.128;11.476;2023-07-30T00:49:50;1.70;;;1.60;;
12165;SDS011;6146;48.128;11.476;2023-07-30T00:52:16;2.10;;;1.70;;
12165;SDS011;6146;48.128;11.476;2023-07-30T00:54:43;2.10;;;1.80;;
12165;SDS011;6146;48.128;11.476;2023-07-30T00:57:09;2.33;;;1.80;;
12165;SDS011;6146;48.128;11.476;2023-07-30T00:59:35;2.07;;;1.70;;
12165;SDS011;6146;48.128;11.476;2023-07-30T01:02:02;1.70;;;1.60;;
12165;SDS011;6146;48.128;11.476;2023-07-30T01:04:29;2.87;;;1.70;;
12165;SDS011;6146;48.128;11.476;2023-07-30T01:06:55;1.97;;;1.77;;
12165;SDS011;6146;48.128;11.476;2023-07-30T01:09:20;2.23;;;1.80;;
12165;SDS011;6146;48.128;11.476;2023-07-30T01:11:47;1.83;;;1.70;;
12165;SDS011;6146;48.128;11.476;2023-07-30T01:14:13;2.83;;;1.67;;
12165;SDS011;6146;48.128;11.476;2023-07-30T01:16:40;1.83;;;1.73;;
12165;SDS011;6146;48.128;11.476;2023-07-30T01:19:06;3.53;;;1.70;;
12165;SDS011;6146;48.128;11.476;2023-07-30T01:21:33;1.97;;;1.73;;
12165;SDS011;6146;48.128;11.476;2023-07-30T01:23:59;2.30;;;2.10;;
12165;SDS011;6146;48.128;11.476;2023-07-30T01:26:27;1.93;;;1.80;;
12165;SDS011;6146;48.128;11.476;2023-07-30T01:29:00;2.97;;;2.03;;
12165;SDS011;6146;48.128;11.476;2023-07-30T01:31:28;1.90;;;1.70;;
12165;SDS011;6146;48.128;11.476;2023-07-30T01:33:56;2.10;;;1.90;;
12165;SDS011;6146;48.128;11.476;2023-07-30T01:36:22;1.80;;;1.67;;
12165;SDS011;6146;48.128;11.476;2023-07-30T01:38:48;2.50;;;1.80;;
12165;SDS011;6146;48.128;11.476;2023-07-30T01:41:15;1.90;;;1.70;;
12165;SDS011;6146;48.128;11.476;2023-07-30T01:43:41;2.10;;;1.90;;
12165;SDS011;6146;48.128;11.476;2023-07-30T01:46:06;2.30;;;1.70;;
12165;SDS011;6146;48.128;11.476;2023-07-30T01:48:32;3.37;;;2.20;;
12165;SDS011;6146;48.128;11.476;2023-07-30T01:50:58;1.90;;;1.80;;
12165;SDS011;6146;48.128;11.476;2023-07-30T01:53:23;3.13;;;1.93;;
12165;SDS011;6146;48.128;11.476;2023-07-30T01:55:49;3.10;;;1.97;;
12165;SDS011;6146;48.128;11.476;2023-07-30T01:58:14;2.07;;;1.87;;
12165;SDS011;6146;48.128;11.476;2023-07-30T02:00:40;2.10;;;1.90;;
12165;SDS011;6146;48.128;11.476;2023-07-30T02:03:06;2.20;;;2.00;;
12165;SDS011;6146;48.128;11.476;2023-07-30T02:05:32;3.20;;;2.10;;
12165;SDS011;6146;48.128;11.476;2023-07-30T02:07:58;4.03;;;1.90;;
12165;SDS011;6146;48.128;11.476;2023-07-30T02:10:26;3.13;;;2.20;;
12165;SDS011;6146;48.128;11.476;2023-07-30T02:12:52;2.77;;;2.33;;
12165;SDS011;6146;48.128;11.476;2023-07-30T02:15:17;2.53;;;2.33;;
12165;SDS011;6146;48.128;11.476;2023-07-30T02:17:43;2.33;;;2.10;;
12165;SDS011;6146;48.128;11.476;2023-07-30T02:20:08;2.30;;;2.10;;
12165;SDS011;6146;48.128;11.476;2023-07-30T02:22:34;3.67;;;2.33;;
12165;SDS011;6146;48.128;11.476;2023-07-30T02:25:00;2.30;;;2.10;;
12165;SDS011;6146;48.128;11.476;2023-07-30T02:27:25;2.20;;;2.00;;
12165;SDS011;6146;48.128;11.476;2023-07-30T02:29:51;2.20;;;2.00;;
12165;SDS011;6146;48.128;11.476;2023-07-30T02:32:16;2.33;;;2.00;;
12165;SDS011;6146;48.128;11.476;2023-07-30T02:34:42;3.53;;;2.27;;
12165;SDS011;6146;48.128;11.476;2023-07-30T02:37:07;2.40;;;2.10;;
12165;SDS011;6146;48.128;11.476;2023-07-30T02:39:33;2.43;;;2.20;;
12165;SDS011;6146;48.128;11.476;2023-07-30T02:41:58;3.07;;;2.20;;
12165;SDS011;6146;48.128;11.476;2023-07-30T02:44:24;2.23;;;2.03;;
12165;SDS011;6146;48.128;11.476;2023-07-30T02:46:49;2.93;;;2.40;;
12165;SDS011;6146;48.128;11.476;2023-07-30T02:49:15;2.40;;;2.17;;
12165;SDS011;6146;48.128;11.476;2023-07-30T02:51:41;2.50;;;2.10;;
12165;SDS011;6146;48.128;11.476;2023-07-30T02:54:08;2.27;;;2.07;;
12165;SDS011;6146;48.128;11.476;2023-07-30T02:56:34;2.50;;;2.30;;
12165;SDS011;6146;48.128;11.476;2023-07-30T02:59:00;2.70;;;2.00;;
12165;SDS011;6146;48.128;11.476;2023-07-30T03:01:26;2.47;;;1.97;;
12165;SDS011;6146;48.128;11.476;2023-07-30T03:03:52;2.60;;;2.40;;
12165;SDS011;6146;48.128;11.476;2023-07-30T03:06:17;2.53;;;2.33;;
12165;SDS011;6146;48.128;11.476;2023-07-30T03:08:43;2.30;;;2.10;;
12165;SDS011;6146;48.128;11.476;2023-07-30T03:11:08;3.57;;;2.17;;
12165;SDS011;6146;48.128;11.476;2023-07-30T03:13:34;2.60;;;2.13;;
12165;SDS011;6146;48.128;11.476;2023-07-30T03:16:00;2.53;;;2.10;;
12165;SDS011;6146;48.128;11.476;2023-07-30T03:18:25;2.33;;;2.10;;
12165;SDS011;6146;48.128;11.476;2023-07-30T03:20:51;3.87;;;2.60;;
12165;SDS011;6146;48.128;11.476;2023-07-30T03:23:16;2.83;;;2.63;;
12165;SDS011;6146;48.128;11.476;2023-07-30T03:25:42;3.70;;;2.43;;
12165;SDS011;6146;48.128;11.476;2023-07-30T03:28:07;2.70;;;2.30;;
12165;SDS011;6146;48.128;11.476;2023-07-30T03:30:33;3.03;;;2.43;;
12165;SDS011;6146;48.128;11.476;2023-07-30T03:32:58;2.80;;;2.50;;
12165;SDS011;6146;48.128;11.476;2023-07-30T03:35:24;2.50;;;2.30;;
12165;SDS011;6146;48.128;11.476;2023-07-30T03:37:49;3.60;;;2.47;;
12165;SDS011;6146;48.128;11.476;2023-07-30T03:40:16;2.97;;;2.57;;
12165;SDS011;6146;48.128;11.476;2023-07-30T03:42:41;2.23;;;2.03;;
12165;SDS011;6146;48.128;11.476;2023-07-30T03:45:07;3.60;;;2.50;;
12165;SDS011;6146;48.128;11.476;2023-07-30T03:47:33;4.00;;;2.43;;
12165;SDS011;6146;48.128;11.476;2023-07-30T03:49:58;4.07;;;2.40;;
12165;SDS011;6146;48.128;11.476;2023-07-30T03:52:24;2.50;;;2.30;;
12165;SDS011;6146;48.128;11.476;2023-07-30T03:54:50;4.03;;;2.50;;
12165;SDS011;6146;48.128;11.476;2023-07-30T03:57:15;2.63;;;2.43;;
12165;SDS011;6146;48.128;11.476;2023-07-30T03:59:41;3.60;;;2.60;;
12165;SDS011;6146;48.128;11.476;2023-07-30T04:02:06;3.30;;;2.30;;
12165;SDS011;6146;48.128;11.476;2023-07-30T04:04:32;2.53;;;2.30;;
12165;SDS011;6146;48.128;11.476;2023-07-30T04:06:57;3.90;;;2.47;;
12165;SDS011;6146;48.128;11.476;2023-07-30T04:09:23;3.40;;;2.30;;
12165;SDS011;6146;48.128;11.476;2023-07-30T04:11:48;2.50;;;2.30;;
12165;SDS011;6146;48.128;11.476;2023-07-30T04:14:14;2.17;;;1.97;;
12165;SDS011;6146;48.128;11.476;2023-07-30T04:16:39;2.90;;;2.40;;
12165;SDS011;6146;48.128;11.476;2023-07-30T04:19:05;2.70;;;2.50;;
12165;SDS011;6146;48.128;11.476;2023-07-30T04:21:31;2.47;;;2.27;;
12165;SDS011;6146;48.128;11.476;2023-07-30T04:23:56;2.90;;;2.43;;
12165;SDS011;6146;48.128;11.476;2023-07-30T04:26:22;2.37;;;2.07;;
12165;SDS011;6146;48.128;11.476;2023-07-30T04:28:47;2.70;;;2.27;;
12165;SDS011;6146;48.128;11.476;2023-07-30T04:31:13;3.03;;;2.30;;
12165;SDS011;6146;48.128;11.476;2023-07-30T04:33:38;3.00;;;2.60;;
12165;SDS011;6146;48.128;11.476;2023-07-30T04:36:04;2.43;;;2.23;;
12165;SDS011;6146;48.128;11.476;2023-07-30T04:38:30;3.80;;;2.30;;
12165;SDS011;6146;48.128;11.476;2023-07-30T04:40:57;4.20;;;2.30;;
12165;SDS011;6146;48.128;11.476;2023-07-30T04:43:23;2.30;;;1.97;;
12165;SDS011;6146;48.128;11.476;2023-07-30T04:45:48;3.27;;;2.23;;
12165;SDS011;6146;48.128;11.476;2023-07-30T04:48:14;2.40;;;2.20;;
12165;SDS011;6146;48.128;11.476;2023-07-30T04:50:39;2.40;;;2.20;;
12165;SDS011;6146;48.128;11.476;2023-07-30T04:53:07;2.63;;;2.43;;
12165;SDS011;6146;48.128;11.476;2023-07-30T04:55:33;3.23;;;2.20;;
12165;SDS011;6146;48.128;11.476;2023-07-30T04:57:59;2.97;;;2.20;;
12165;SDS011;6146;48.128;11.476;2023-07-30T05:00:24;2.30;;;2.10;;
12165;SDS011;6146;48.128;11.476;2023-07-30T05:02:50;2.30;;;2.10;;
12165;SDS011;6146;48.128;11.476;2023-07-30T05:05:16;2.20;;;2.00;;
12165;SDS011;6146;48.128;11.476;2023-07-30T05:07:41;2.40;;;2.20;;
12165;SDS011;6146;48.128;11.476;2023-07-30T05:10:07;2.40;;;2.13;;
12165;SDS011;6146;48.128;11.476;2023-07-30T05:12:36;2.03;;;1.83;;
12165;SDS011;6146;48.128;11.476;2023-07-30T05:15:01;2.63;;;1.83;;
12165;SDS011;6146;48.128;11.476;2023-07-30T05:17:28;2.80;;;2.07;;
12165;SDS011;6146;48.128;11.476;2023-07-30T05:19:53;2.30;;;2.10;;
12165;SDS011;6146;48.128;11.476;2023-07-30T05:22:19;3.13;;;2.10;;
12165;SDS011;6146;48.128;11.476;2023-07-30T05:24:45;2.30;;;2.10;;
12165;SDS011;6146;48.128;11.476;2023-07-30T05:27:10;2.20;;;2.00;;
12165;SDS011;6146;48.128;11.476;2023-07-30T05:29:36;2.23;;;2.03;;
12165;SDS011;6146;48.128;11.476;2023-07-30T05:32:01;5.27;;;2.07;;
12165;SDS011;6146;48.128;11.476;2023-07-30T05:34:27;3.37;;;1.83;;
12165;SDS011;6146;48.128;11.476;2023-07-30T05:36:53;3.27;;;2.20;;
12165;SDS011;6146;48.128;11.476;2023-07-30T05:39:18;2.10;;;1.90;;
12165;SDS011;6146;48.128;11.476;2023-07-30T05:41:44;2.23;;;1.90;;
12165;SDS011;6146;48.128;11.476;2023-07-30T05:44:09;2.80;;;2.00;;
12165;SDS011;6146;48.128;11.476;2023-07-30T05:46:35;2.87;;;1.90;;
12165;SDS011;6146;48.128;11.476;2023-07-30T05:49:00;3.70;;;1.83;;
12165;SDS011;6146;48.128;11.476;2023-07-30T05:51:26;2.30;;;2.10;;
12165;SDS011;6146;48.128;11.476;2023-07-30T05:53:51;2.20;;;1.80;;
12165;SDS011;6146;48.128;11.476;2023-07-30T05:56:17;2.43;;;2.10;;
12165;SDS011;6146;48.128;11.476;2023-07-30T05:58:44;2.03;;;1.70;;
12165;SDS011;6146;48.128;11.476;2023-07-30T06:01:09;2.03;;;1.83;;
12165;SDS011;6146;48.128;11.476;2023-07-30T06:03:36;1.65;;;1.55;;
12165;SDS011;6146;48.128;11.476;2023-07-30T06:06:02;2.03;;;1.70;;
12165;SDS011;6146;48.128;11.476;2023-07-30T06:08:28;1.85;;;1.50;;
12165;SDS011;6146;48.128;11.476;2023-07-30T06:10:54;1.58;;;1.48;;
12165;SDS011;6146;48.128;11.476;2023-07-30T06:13:20;1.63;;;1.52;;
12165;SDS011;6146;48.128;11.476;2023-07-30T06:15:46;1.83;;;1.60;;
12165;SDS011;6146;48.128;11.476;2023-07-30T06:18:11;1.88;;;1.77;;
12165;SDS011;6146;48.128;11.476;2023-07-30T06:20:37;1.80;;;1.50;;
12165;SDS011;6146;48.128;11.476;2023-07-30T06:23:02;2.88;;;1.60;;
12165;SDS011;6146;48.128;11.476;2023-07-30T06:25:28;1.75;;;1.65;;
12165;SDS011;6146;48.128;11.476;2023-07-30T06:27:54;1.60;;;1.50;;
12165;SDS011;6146;48.128;11.476;2023-07-30T06:30:23;1.83;;;1.58;;
12165;SDS011;6146;48.128;11.476;2023-07-30T06:32:49;1.90;;;1.70;;
12165;SDS011;6146;48.128;11.476;2023-07-30T06:35:15;1.92;;;1.40;;
12165;SDS011;6146;48.128;11.476;2023-07-30T06:37:41;1.85;;;1.60;;
12165;SDS011;6146;48.128;11.476;2023-07-30T06:40:06;1.92;;;1.60;;
12165;SDS011;6146;48.128;11.476;2023-07-30T06:42:32;1.58;;;1.48;;
12165;SDS011;6146;48.128;11.476;2023-07-30T06:44:58;2.03;;;1.58;;
12165;SDS011;6146;48.128;11.476;2023-07-30T06:47:24;1.90;;;1.70;;
12165;SDS011;6146;48.128;11.476;2023-07-30T06:49:49;1.92;;;1.55;;
12165;SDS011;6146;48.128;11.476;2023-07-30T06:52:15;1.50;;;1.40;;
12165;SDS011;6146;48.128;11.476;2023-07-30T06:54:40;1.85;;;1.42;;
12165;SDS011;6146;48.128;11.476;2023-07-30T06:57:06;1.77;;;1.67;;
12165;SDS011;6146;48.128;11.476;2023-07-30T06:59:31;1.83;;;1.65;;
12165;SDS011;6146;48.128;11.476;2023-07-30T07:01:58;1.95;;;1.58;;
12165;SDS011;6146;48.128;11.476;2023-07-30T07:04:24;1.85;;;1.73;;
12165;SDS011;6146;48.128;11.476;2023-07-30T07:06:49;2.47;;;1.48;;
12165;SDS011;6146;48.128;11.476;2023-07-30T07:09:15;1.70;;;1.60;;
12165;SDS011;6146;48.128;11.476;2023-07-30T07:11:41;2.42;;;1.60;;
12165;SDS011;6146;48.128;11.476;2023-07-30T07:14:06;2.10;;;1.42;;
12165;SDS011;6146;48.128;11.476;2023-07-30T07:16:32;1.77;;;1.40;;
12165;SDS011;6146;48.128;11.476;2023-07-30T07:18:57;1.63;;;1.52;;
12165;SDS011;6146;48.128;11.476;2023-07-30T07:21:23;1.50;;;1.40;;
12165;SDS011;6146;48.128;11.476;2023-07-30T07:23:48;2.60;;;1.73;;
12165;SDS011;6146;48.128;11.476;2023-07-30T07:26:14;1.52;;;1.42;;
12165;SDS011;6146;48.128;11.476;2023-07-30T07:28:39;1.65;;;1.55;;
12165;SDS011;6146;48.128;11.476;2023-07-30T07:31:05;1.75;;;1.65;;
12165;SDS011;6146;48.128;11.476;2023-07-30T07:33:31;3.22;;;1.70;;
12165;SDS011;6146;48.128;11.476;2023-07-30T07:36:06;1.77;;;1.67;;
12165;SDS011;6146;48.128;11.476;2023-07-30T07:38:32;1.58;;;1.48;;
12165;SDS011;6146;48.128;11.476;2023-07-30T07:40:59;2.25;;;1.58;;
12165;SDS011;6146;48.128;11.476;2023-07-30T07:43:26;1.75;;;1.65;;
12165;SDS011;6146;48.128;11.476;2023-07-30T07:45:52;2.40;;;1.70;;
12165;SDS011;6146;48.128;11.476;2023-07-30T07:48:17;1.98;;;1.65;;
12165;SDS011;6146;48.128;11.476;2023-07-30T07:50:43;2.70;;;1.60;;
12165;SDS011;6146;48.128;11.476;2023-07-30T07:53:09;1.58;;;1.48;;
12165;SDS011;6146;48.128;11.476;2023-07-30T07:55:35;2.72;;;1.77;;
12165;SDS011;6146;48.128;11.476;2023-07-30T07:58:00;2.00;;;1.80;;
12165;SDS011;6146;48.128;11.476;2023-07-30T08:00:26;1.92;;;1.80;;
12165;SDS011;6146;48.128;11.476;2023-07-30T08:02:52;1.50;;;1.40;;
12165;SDS011;6146;48.128;11.476;2023-07-30T08:05:17;1.70;;;1.60;;
12165;SDS011;6146;48.128;11.476;2023-07-30T08:07:45;1.95;;;1.75;;
12165;SDS011;6146;48.128;11.476;2023-07-30T08:10:11;1.77;;;1.60;;
12165;SDS011;6146;48.128;11.476;2023-07-30T08:12:37;1.50;;;1.40;;
12165;SDS011;6146;48.128;11.476;2023-07-30T08:15:02;2.37;;;1.60;;
12165;SDS011;6146;48.128;11.476;2023-07-30T08:17:28;1.90;;;1.70;;
12165;SDS011;6146;48.128;11.476;2023-07-30T08:19:54;1.73;;;1.63;;
12165;SDS011;6146;48.128;11.476;2023-07-30T08:22:20;1.70;;;1.58;;
12165;SDS011;6146;48.128;11.476;2023-07-30T08:24:45;1.85;;;1.50;;
12165;SDS011;6146;48.128;11.476;2023-07-30T08:27:11;1.75;;;1.50;;
12165;SDS011;6146;48.128;11.476;2023-07-30T08:29:36;1.63;;;1.40;;
12165;SDS011;6146;48.128;11.476;2023-07-30T08:32:02;2.30;;;1.70;;
12165;SDS011;6146;48.128;11.476;2023-07-30T08:34:28;2.07;;;1.67;;
12165;SDS011;6146;48.128;11.476;2023-07-30T08:36:53;1.93;;;1.60;;
12165;SDS011;6146;48.128;11.476;2023-07-30T08:39:19;1.57;;;1.43;;
12165;SDS011;6146;48.128;11.476;2023-07-30T08:41:45;2.30;;;1.47;;
12165;SDS011;6146;48.128;11.476;2023-07-30T08:44:11;2.67;;;1.80;;
12165;SDS011;6146;48.128;11.476;2023-07-30T08:46:37;1.50;;;1.40;;
12165;SDS011;6146;48.128;11.476;2023-07-30T08:49:03;1.48;;;1.38;;
12165;SDS011;6146;48.128;11.476;2023-07-30T08:51:29;2.40;;;1.40;;
12165;SDS011;6146;48.128;11.476;2023-07-30T08:53:58;1.60;;;1.50;;
12165;SDS011;6146;48.128;11.476;2023-07-30T08:56:26;2.08;;;1.75;;
12165;SDS011;6146;48.128;11.476;2023-07-30T08:58:52;1.90;;;1.60;;
12165;SDS011;6146;48.128;11.476;2023-07-30T09:01:22;2.88;;;1.52;;
12165;SDS011;6146;48.128;11.476;2023-07-30T09:03:52;1.75;;;1.40;;
12165;SDS011;6146;48.128;11.476;2023-07-30T09:06:18;1.90;;;1.80;;
12165;SDS011;6146;48.128;11.476;2023-07-30T09:08:44;1.70;;;1.60;;
12165;SDS011;6146;48.128;11.476;2023-07-30T09:11:10;2.05;;;1.60;;
12165;SDS011;6146;48.128;11.476;2023-07-30T09:13:40;1.90;;;1.67;;
12165;SDS011;6146;48.128;11.476;2023-07-30T09:16:10;1.65;;;1.55;;
12165;SDS011;6146;48.128;11.476;2023-07-30T09:21:11;1.60;;;1.50;;
12165;SDS011;6146;48.128;11.476;2023-07-30T09:23:41;1.45;;;1.35;;
12165;SDS011;6146;48.128;11.476;2023-07-30T09:26:13;1.35;;;1.25;;
12165;SDS011;6146;48.128;11.476;2023-07-30T09:28:42;1.80;;;1.70;;
12165;SDS011;6146;48.128;11.476;2023-07-30T09:31:08;1.80;;;1.60;;
12165;SDS011;6146;48.128;11.476;2023-07-30T09:33:34;2.30;;;1.40;;
12165;SDS011;6146;48.128;11.476;2023-07-30T09:36:05;1.60;;;1.50;;
12165;SDS011;6146;48.128;11.476;2023-07-30T09:38:32;2.33;;;1.55;;
12165;SDS011;6146;48.128;11.476;2023-07-30T09:41:07;1.30;;;1.20;;
12165;SDS011;6146;48.128;11.476;2023-07-30T09:43:34;1.77;;;1.50;;
12165;SDS011;6146;48.128;11.476;2023-07-30T09:46:01;2.60;;;1.60;;
12165;SDS011;6146;48.128;11.476;2023-07-30T09:48:29;1.80;;;1.60;;
12165;SDS011;6146;48.128;11.476;2023-07-30T09:50:57;1.63;;;1.52;;
12165;SDS011;6146;48.128;11.476;2023-07-30T09:53:24;1.52;;;1.42;;
12165;SDS011;6146;48.128;11.476;2023-07-30T09:55:50;2.47;;;1.65;;
12165;SDS011;6146;48.128;11.476;2023-07-30T09:58:15;1.40;;;1.30;;
12165;SDS011;6146;48.128;11.476;2023-07-30T10:00:42;1.55;;;1.45;;
12165;SDS011;6146;48.128;11.476;2023-07-30T10:03:09;1.83;;;1.50;;
12165;SDS011;6146;48.128;11.476;2023-07-30T10:05:36;1.45;;;1.35;;
12165;SDS011;6146;48.128;11.476;2023-07-30T10:08:05;1.60;;;1.50;;
12165;SDS011;6146;48.128;11.476;2023-07-30T10:10:37;2.03;;;1.58;;
12165;SDS011;6146;48.128;11.476;2023-07-30T10:13:05;2.10;;;1.87;;
12165;SDS011;6146;48.128;11.476;2023-07-30T10:15:33;1.60;;;1.40;;
12165;SDS011;6146;48.128;11.476;2023-07-30T10:18:00;1.97;;;1.60;;
12165;SDS011;6146;48.128;11.476;2023-07-30T10:20:26;1.90;;;1.70;;
12165;SDS011;6146;48.128;11.476;2023-07-30T10:22:54;1.87;;;1.47;;
12165;SDS011;6146;48.128;11.476;2023-07-30T10:25:21;1.60;;;1.50;;
12165;SDS011;6146;48.128;11.476;2023-07-30T10:27:51;2.83;;;1.30;;
12165;SDS011;6146;48.128;11.476;2023-07-30T10:30:20;2.10;;;1.50;;
12165;SDS011;6146;48.128;11.476;2023-07-30T10:38:13;1.55;;;1.30;;
12165;SDS011;6146;48.128;11.476;2023-07-30T10:43:38;1.83;;;1.73;;
12165;SDS011;6146;48.128;11.476;2023-07-30T10:46:05;2.45;;;2.10;;
12165;SDS011;6146;48.128;11.476;2023-07-30T10:48:33;2.40;;;2.20;;
12165;SDS011;6146;48.128;11.476;2023-07-30T10:51:03;2.20;;;2.00;;
12165;SDS011;6146;48.128;11.476;2023-07-30T10:53:30;2.08;;;1.73;;
12165;SDS011;6146;48.128;11.476;2023-07-30T10:55:59;2.20;;;1.73;;
12165;SDS011;6146;48.128;11.476;2023-07-30T10:58:27;1.52;;;1.40;;
12165;SDS011;6146;48.128;11.476;2023-07-30T11:00:54;1.90;;;1.55;;
12165;SDS011;6146;48.128;11.476;2023-07-30T11:03:21;1.90;;;1.70;;
12165;SDS011;6146;48.128;11.476;2023-07-30T11:05:50;1.77;;;1.67;;
12165;SDS011;6146;48.128;11.476;2023-07-30T11:08:16;1.70;;;1.60;;
12165;SDS011;6146;48.128;11.476;2023-07-30T11:10:42;3.22;;;1.90;;
12165;SDS011;6146;48.128;11.476;2023-07-30T11:13:09;1.80;;;1.35;;
12165;SDS011;6146;48.128;11.476;2023-07-30T11:15:40;2.75;;;2.55;;
12165;SDS011;6146;48.128;11.476;2023-07-30T11:18:09;2.22;;;1.92;;
12165;SDS011;6146;48.128;11.476;2023-07-30T11:20:38;2.20;;;1.63;;
12165;SDS011;6146;48.128;11.476;2023-07-30T11:23:22;2.15;;;1.95;;
12165;SDS011;6146;48.128;11.476;2023-07-30T11:25:49;1.63;;;1.52;;
12165;SDS011;6146;48.128;11.476;2023-07-30T11:28:36;1.60;;;1.50;;
12165;SDS011;6146;48.128;11.476;2023-07-30T11:31:03;3.00;;;1.33;;
12165;SDS011;6146;48.128;11.476;2023-07-30T11:33:31;1.58;;;1.48;;
12165;SDS011;6146;48.128;11.476;2023-07-30T11:35:57;1.52;;;1.40;;
12165;SDS011;6146;48.128;11.476;2023-07-30T11:38:25;1.60;;;1.50;;
12165;SDS011;6146;48.128;11.476;2023-07-30T11:40:52;1.17;;;1.10;;
12165;SDS011;6146;48.128;11.476;2023-07-30T11:43:22;1.60;;;1.30;;
12165;SDS011;6146;48.128;11.476;2023-07-30T11:45:49;1.50;;;1.40;;
12165;SDS011;6146;48.128;11.476;2023-07-30T11:48:30;1.80;;;1.70;;
12165;SDS011;6146;48.128;11.476;2023-07-30T11:50:55;2.03;;;1.50;;
12165;SDS011;6146;48.128;11.476;2023-07-30T11:53:21;2.70;;;1.67;;
12165;SDS011;6146;48.128;11.476;2023-07-30T11:55:47;1.77;;;1.60;;
12165;SDS011;6146;48.128;11.476;2023-07-30T11:58:12;1.77;;;1.33;;
12165;SDS011;6146;48.128;11.476;2023-07-30T12:00:39;2.13;;;1.53;;
12165;SDS011;6146;48.128;11.476;2023-07-30T12:03:06;2.13;;;1.33;;
12165;SDS011;6146;48.128;11.476;2023-07-30T12:05:37;2.03;;;1.50;;
12165;SDS011;6146;48.128;11.476;2023-07-30T12:08:04;2.87;;;1.70;;
12165;SDS011;6146;48.128;11.476;2023-07-30T12:10:43;1.70;;;1.40;;
12165;SDS011;6146;48.128;11.476;2023-07-30T12:13:14;1.53;;;1.43;;
12165;SDS011;6146;48.128;11.476;2023-07-30T12:15:50;2.50;;;1.80;;
12165;SDS011;6146;48.128;11.476;2023-07-30T12:18:17;1.63;;;1.53;;
12165;SDS011;6146;48.128;11.476;2023-07-30T12:20:43;1.50;;;1.40;;
12165;SDS011;6146;48.128;11.476;2023-07-30T12:23:08;1.87;;;1.57;;
12165;SDS011;6146;48.128;11.476;2023-07-30T12:25:34;2.40;;;1.60;;
12165;SDS011;6146;48.128;11.476;2023-07-30T12:27:59;1.50;;;1.40;;
12165;SDS011;6146;48.128;11.476;2023-07-30T12:30:25;3.20;;;1.80;;
12165;SDS011;6146;48.128;11.476;2023-07-30T12:32:52;1.77;;;1.60;;
12165;SDS011;6146;48.128;11.476;2023-07-30T12:35:18;4.30;;;1.80;;
12165;SDS011;6146;48.128;11.476;2023-07-30T12:37:43;1.97;;;1.67;;
12165;SDS011;6146;48.128;11.476;2023-07-30T12:40:09;2.00;;;1.80;;
12165;SDS011;6146;48.128;11.476;2023-07-30T12:42:35;2.30;;;1.53;;
12165;SDS011;6146;48.128;11.476;2023-07-30T12:45:00;2.13;;;1.70;;
12165;SDS011;6146;48.128;11.476;2023-07-30T12:47:26;2.63;;;1.70;;
12165;SDS011;6146;48.128;11.476;2023-07-30T12:49:51;2.33;;;1.70;;
12165;SDS011;6146;48.128;11.476;2023-07-30T12:52:17;1.57;;;1.47;;
12165;SDS011;6146;48.128;11.476;2023-07-30T12:54:42;2.13;;;1.90;;
12165;SDS011;6146;48.128;11.476;2023-07-30T12:57:08;1.80;;;1.70;;
12165;SDS011;6146;48.128;11.476;2023-07-30T12:59:33;2.63;;;1.93;;
12165;SDS011;6146;48.128;11.476;2023-07-30T13:02:01;1.63;;;1.50;;
12165;SDS011;6146;48.128;11.476;2023-07-30T13:04:26;1.60;;;1.50;;
12165;SDS011;6146;48.128;11.476;2023-07-30T13:06:52;1.87;;;1.70;;
12165;SDS011;6146;48.128;11.476;2023-07-30T13:09:19;2.53;;;1.60;;
12165;SDS011;6146;48.128;11.476;2023-07-30T13:11:44;2.37;;;1.40;;
12165;SDS011;6146;48.128;11.476;2023-07-30T13:14:10;3.07;;;1.60;;
12165;SDS011;6146;48.128;11.476;2023-07-30T13:16:36;2.40;;;1.70;;
12165;SDS011;6146;48.128;11.476;2023-07-30T13:19:01;2.00;;;1.70;;
12165;SDS011;6146;48.128;11.476;2023-07-30T13:21:27;2.03;;;1.70;;
12165;SDS011;6146;48.128;11.476;2023-07-30T13:23:52;1.80;;;1.70;;
12165;SDS011;6146;48.128;11.476;2023-07-30T13:26:18;1.83;;;1.70;;
12165;SDS011;6146;48.128;11.476;2023-07-30T13:28:44;2.00;;;1.80;;
12165;SDS011;6146;48.128;11.476;2023-07-30T13:31:09;2.43;;;1.77;;
12165;SDS011;6146;48.128;11.476;2023-07-30T13:33:36;1.60;;;1.50;;
12165;SDS011;6146;48.128;11.476;2023-07-30T13:36:01;1.70;;;1.60;;
12165;SDS011;6146;48.128;11.476;2023-07-30T13:38:27;2.00;;;1.80;;
12165;SDS011;6146;48.128;11.476;2023-07-30T13:40:53;5.07;;;2.50;;
12165;SDS011;6146;48.128;11.476;2023-07-30T13:43:19;2.13;;;1.60;;
12165;SDS011;6146;48.128;11.476;2023-07-30T13:45:45;3.70;;;2.10;;
12165;SDS011;6146;48.128;11.476;2023-07-30T13:48:15;2.07;;;1.87;;
12165;SDS011;6146;48.128;11.476;2023-07-30T13:50:40;2.67;;;2.13;;
12165;SDS011;6146;48.128;11.476;2023-07-30T13:53:06;2.93;;;2.07;;
12165;SDS011;6146;48.128;11.476;2023-07-30T13:55:32;3.40;;;2.00;;
12165;SDS011;6146;48.128;11.476;2023-07-30T13:57:57;2.27;;;1.80;;
12165;SDS011;6146;48.128;11.476;2023-07-30T14:00:23;2.73;;;2.40;;
12165;SDS011;6146;48.128;11.476;2023-07-30T14:02:49;2.50;;;2.30;;
12165;SDS011;6146;48.128;11.476;2023-07-30T14:05:16;2.80;;;2.23;;
12165;SDS011;6146;48.128;11.476;2023-07-30T14:07:43;2.20;;;2.00;;
12165;SDS011;6146;48.128;11.476;2023-07-30T14:10:10;3.80;;;2.33;;
12165;SDS011;6146;48.128;11.476;2023-07-30T14:12:36;3.07;;;2.10;;
12165;SDS011;6146;48.128;11.476;2023-07-30T14:15:01;2.17;;;1.83;;
12165;SDS011;6146;48.128;11.476;2023-07-30T14:17:27;2.20;;;2.00;;
12165;SDS011;6146;48.128;11.476;2023-07-30T14:19:53;2.10;;;1.90;;
12165;SDS011;6146;48.128;11.476;2023-07-30T14:22:20;2.50;;;2.10;;
12165;SDS011;6146;48.128;11.476;2023-07-30T14:24:46;1.80;;;1.70;;
12165;SDS011;6146;48.128;11.476;2023-07-30T14:27:11;1.73;;;1.63;;
12165;SDS011;6146;48.128;11.476;2023-07-30T14:29:37;2.77;;;2.10;;
12165;SDS011;6146;48.128;11.476;2023-07-30T14:32:03;3.70;;;2.03;;
12165;SDS011;6146;48.128;11.476;2023-07-30T14:34:28;2.17;;;1.97;;
12165;SDS011;6146;48.128;11.476;2023-07-30T14:36:54;2.17;;;1.97;;
12165;SDS011;6146;48.128;11.476;2023-07-30T14:39:20;2.90;;;2.00;;
12165;SDS011;6146;48.128;11.476;2023-07-30T14:41:45;2.63;;;1.90;;
12165;SDS011;6146;48.128;11.476;2023-07-30T14:44:11;2.30;;;2.10;;
12165;SDS011;6146;48.128;11.476;2023-07-30T14:46:36;2.07;;;1.90;;
12165;SDS011;6146;48.128;11.476;2023-07-30T14:49:02;2.20;;;1.80;;
12165;SDS011;6146;48.128;11.476;2023-07-30T14:51:27;2.27;;;2.07;;
12165;SDS011;6146;48.128;11.476;2023-07-30T14:53:53;2.43;;;1.77;;